Time;durP1;ratioP1;P1;durP2;ratioP2;P2;SDS_P1;SDS_P2;PMS_P1;PMS_P2;Temp;Humidity;BMP_temperature;BMP_pressure;BME280_temperature;BME280_humidity;BME280_pressure;Samples;Min_cycle;Max_cycle;Signal;HPM_P1;HPM_P2
2022/02/08 00:01:35;;;;;;;5.65;4.10;;;;;;;-1.73;100.00;92401.09;5112594;28;20043;-82
2022/02/08 00:04:02;;;;;;;8.88;4.18;;;;;;;-1.23;100.00;92480.06;5112091;28;20493;-83
2022/02/08 00:06:43;;;;;;;5.30;3.65;;;;;;;-1.13;100.00;92490.00;5112588;28;20425;-82
2022/02/08 00:09:11;;;;;;;8.93;3.90;;;;;;;-1.24;100.00;92490.28;5112182;28;20043;-82
2022/02/08 00:11:38;;;;;;;5.78;3.42;;;;;;;-1.38;100.00;92481.59;5111847;28;20131;-82
2022/02/08 00:14:05;;;;;;;6.35;3.75;;;;;;;-2.18;100.00;92361.03;5112400;28;20050;-82
2022/02/08 00:16:34;;;;;;;5.20;4.13;;;;;;;-1.50;100.00;92449.16;5112288;28;20047;-82
2022/02/08 00:19:01;;;;;;;7.93;4.70;;;;;;;-1.40;100.00;92468.34;5112375;28;20120;-82
2022/02/08 00:21:28;;;;;;;4.47;3.83;;;;;;;-1.26;100.00;92494.69;5112114;28;20044;-82
2022/02/08 00:23:55;;;;;;;5.45;3.70;;;;;;;-1.31;100.00;92489.34;5111840;28;20048;-82
2022/02/08 00:26:21;;;;;;;6.20;4.07;;;;;;;-1.17;100.00;92482.91;5111940;28;20070;-82
2022/02/08 00:28:48;;;;;;;5.72;3.50;;;;;;;-2.05;100.00;92368.16;5112134;28;20506;-82
2022/02/08 00:31:15;;;;;;;5.55;3.70;;;;;;;-1.17;100.00;92486.19;5111965;28;20047;-82
2022/02/08 00:33:44;;;;;;;4.93;3.95;;;;;;;-1.44;100.00;92467.13;5111723;28;20554;-82
2022/02/08 00:36:10;;;;;;;4.10;3.67;;;;;;;-1.35;100.00;92482.09;5111883;28;20047;-82
2022/02/08 00:38:38;;;;;;;5.00;3.70;;;;;;;-2.37;100.00;92336.94;5111598;28;20040;-82
2022/02/08 00:41:06;;;;;;;6.88;3.63;;;;;;;-1.36;100.00;92483.03;5111557;28;20089;-82
2022/02/08 00:43:38;;;;;;;4.95;3.60;;;;;;;-1.62;100.00;92452.91;5111837;28;20083;-81
2022/02/08 00:46:10;;;;;;;4.05;3.00;;;;;;;-1.36;100.00;92510.75;5111797;28;20139;-82
2022/02/08 00:48:41;;;;;;;5.85;4.30;;;;;;;-1.38;100.00;92501.75;5111378;28;20047;-82
2022/02/08 00:51:11;;;;;;;5.53;4.10;;;;;;;-1.44;100.00;92479.72;5111330;28;20482;-81
2022/02/08 00:53:38;;;;;;;7.60;3.95;;;;;;;-1.44;100.00;92474.66;5111295;28;20528;-82
2022/02/08 00:56:05;;;;;;;5.00;4.03;;;;;;;-1.21;100.00;92500.03;5111315;28;20047;-82
2022/02/08 00:58:32;;;;;;;5.97;3.40;;;;;;;-1.37;100.00;92508.38;5115193;27;20031;-81
2022/02/08 01:00:59;;;;;;;5.07;4.07;;;;;;;-1.65;100.00;92461.56;5131818;27;20039;-81
2022/02/08 01:03:26;;;;;;;6.05;4.10;;;;;;;-1.35;100.00;92496.41;5121184;27;20046;-81
2022/02/08 01:06:03;;;;;;;4.07;3.33;;;;;;;-1.56;100.00;92481.72;5110177;28;20039;-81
2022/02/08 01:08:33;;;;;;;5.32;3.38;;;;;;;-1.51;100.00;92505.53;5111398;28;20432;-81
2022/02/08 01:11:01;;;;;;;4.53;2.95;;;;;;;-1.50;100.00;92507.09;5110841;28;20180;-81
2022/02/08 01:13:29;;;;;;;4.63;3.25;;;;;;;-1.56;100.00;92499.34;5110932;28;20130;-81
2022/02/08 01:15:56;;;;;;;5.35;3.90;;;;;;;-1.60;100.00;92473.69;5110969;28;20036;-81
2022/02/08 01:18:24;;;;;;;5.82;4.07;;;;;;;-1.66;100.00;92481.84;5111093;28;20046;-81
2022/02/08 01:20:52;;;;;;;6.40;4.07;;;;;;;-1.57;100.00;92497.78;5111160;28;20048;-81
2022/02/08 01:23:19;;;;;;;5.93;3.70;;;;;;;-1.86;100.00;92479.56;5110569;28;20075;-81
2022/02/08 01:25:51;;;;;;;5.85;4.22;;;;;;;-1.91;100.00;92457.38;5111022;28;20048;-81
2022/02/08 01:28:27;;;;;;;7.65;4.50;;;;;;;-1.71;100.00;92484.03;5110880;27;20092;-81
2022/02/08 01:31:00;;;;;;;5.05;3.60;;;;;;;-1.61;100.00;92503.09;5110869;28;20213;-81
2022/02/08 01:34:03;;;;;;;7.75;4.60;;;;;;;-1.72;100.00;92507.66;5110772;28;20052;-81
2022/02/08 01:39:26;;;;;;;5.10;3.33;;;;;;;-1.77;100.00;92503.06;5073721;28;20574;-81
2022/02/08 01:42:25;;;;;;;7.40;4.85;;;;;;;-1.92;100.00;92465.88;5110816;28;20089;-80
2022/02/08 01:45:02;;;;;;;;;;;;;;;-1.75;100.00;92504.47;5110822;28;20040;-80
2022/02/08 01:47:41;;;;;;;4.60;3.67;;;;;;;-1.78;100.00;92497.25;5110628;28;20002;-81
2022/02/08 01:50:11;;;;;;;4.57;3.53;;;;;;;-1.77;100.00;92503.06;5110391;28;20114;-81
2022/02/08 01:52:39;;;;;;;5.32;3.83;;;;;;;-1.83;100.00;92508.69;5110051;28;20039;-80
2022/02/08 01:55:07;;;;;;;4.07;3.30;;;;;;;-1.83;100.00;92529.63;5110285;28;20040;-80
2022/02/08 01:57:35;;;;;;;4.57;4.00;;;;;;;-1.75;100.00;92529.66;5110136;28;20761;-79
2022/02/08 02:00:04;;;;;;;4.35;3.78;;;;;;;-1.91;100.00;92510.25;5126826;27;20031;-80
2022/02/08 02:02:30;;;;;;;5.32;3.80;;;;;;;-1.88;100.00;92519.22;5128404;27;20043;-81
2022/02/08 02:04:57;;;;;;;6.60;4.82;;;;;;;-1.76;100.00;92525.56;5124681;27;20043;-80
2022/02/08 02:07:25;;;;;;;4.80;3.70;;;;;;;-1.86;100.00;92517.34;5130413;27;20088;-80
2022/02/08 02:09:52;;;;;;;5.47;3.75;;;;;;;-1.90;100.00;92524.41;5130996;27;20104;-79
2022/02/08 02:12:19;;;;;;;4.82;3.80;;;;;;;-2.05;100.00;92498.22;5130575;27;20043;-80
2022/02/08 02:14:47;;;;;;;4.72;3.70;;;;;;;-1.97;100.00;92523.44;5130496;27;20051;-79
2022/02/08 02:17:14;;;;;;;5.40;4.25;;;;;;;-2.09;100.00;92504.50;5130089;27;20049;-79
2022/02/08 02:19:41;;;;;;;5.45;3.67;;;;;;;-1.94;100.00;92522.34;5130365;27;20039;-80
2022/02/08 02:22:09;;;;;;;4.43;3.30;;;;;;;-1.89;100.00;92551.16;5130265;27;20043;-79
2022/02/08 02:24:39;;;;;;;5.53;3.95;;;;;;;-1.88;100.00;92560.31;5130351;27;20047;-80
2022/02/08 02:27:10;;;;;;;4.25;3.85;;;;;;;-2.03;100.00;92534.88;5130499;27;20401;-79
2022/02/08 02:29:37;;;;;;;5.90;3.85;;;;;;;-1.93;100.00;92569.22;5130230;27;20371;-79
2022/02/08 02:32:05;;;;;;;6.65;4.15;;;;;;;-2.06;100.00;92530.16;5130219;28;21017;-78
2022/02/08 02:34:32;;;;;;;5.32;3.03;;;;;;;-1.95;100.00;92579.44;5130230;28;20047;-78
2022/02/08 02:36:59;;;;;;;4.40;3.45;;;;;;;-1.95;100.00;92563.56;5130609;28;20035;-78
2022/02/08 02:39:28;;;;;;;5.72;3.92;;;;;;;-1.93;100.00;92579.31;5130544;28;20039;-78
2022/02/08 02:41:57;;;;;;;5.47;4.80;;;;;;;-1.88;100.00;92574.63;5130342;27;20383;-77
2022/02/08 02:44:24;;;;;;;6.70;4.38;;;;;;;-1.93;100.00;92571.75;5130389;28;20428;-78
2022/02/08 02:46:52;;;;;;;4.38;3.80;;;;;;;-1.88;100.00;92582.16;5130410;28;20046;-78
2022/02/08 02:49:19;;;;;;;6.03;3.55;;;;;;;-1.96;100.00;92585.44;5130312;28;20047;-77
2022/02/08 02:51:46;;;;;;;3.95;3.50;;;;;;;-1.98;100.00;92586.50;5130317;28;20096;-76
2022/02/08 02:54:15;;;;;;;4.72;4.10;;;;;;;-1.95;100.00;92576.94;5130339;28;20043;-77
2022/02/08 02:56:42;;;;;;;4.28;3.80;;;;;;;-1.99;100.00;92575.63;5130365;28;20088;-77
2022/02/08 02:59:11;;;;;;;5.65;3.40;;;;;;;-2.05;100.00;92559.44;5120995;28;20040;-77
2022/02/08 03:01:46;;;;;;;3.92;3.30;;;;;;;-1.97;100.00;92583.06;5109651;28;20039;-77
2022/02/08 03:04:34;;;;;;;5.65;3.63;;;;;;;-2.00;100.00;92571.56;5126313;28;20054;-79
2022/02/08 03:20:40;;;;;;;4.68;3.50;;;;;;;-2.04;100.00;92586.16;5111935;28;20051;-79
2022/02/08 03:23:08;;;;;;;4.15;3.30;;;;;;;-2.04;100.00;92590.44;5130003;28;20039;-79
2022/02/08 03:25:34;;;;;;;4.75;3.38;;;;;;;-2.00;100.00;92586.66;5129956;28;20051;-79
2022/02/08 03:28:01;;;;;;;4.47;3.10;;;;;;;-2.04;100.00;92588.69;5130748;27;20047;-79
2022/02/08 03:30:30;;;;;;;4.53;3.53;;;;;;;-2.06;100.00;92592.28;5133501;27;20047;-79
2022/02/08 03:32:56;;;;;;;3.92;3.00;;;;;;;-2.04;100.00;92605.53;5133570;27;20047;-79
2022/02/08 03:35:23;;;;;;;3.88;3.15;;;;;;;-2.01;100.00;92617.78;5133776;27;20035;-79
2022/02/08 03:37:57;;;;;;;3.58;2.80;;;;;;;-2.09;100.00;92602.66;5133736;27;20043;-79
2022/02/08 03:40:37;;;;;;;3.53;3.15;;;;;;;-2.01;100.00;92607.72;5133381;27;20490;-79
2022/02/08 03:43:14;;;;;;;5.57;3.25;;;;;;;-2.31;100.00;92566.97;5133334;27;20084;-79
2022/02/08 03:45:44;;;;;;;4.60;2.97;;;;;;;-2.20;100.00;92591.91;5133312;27;20478;-79
2022/02/08 03:48:13;;;;;;;4.82;3.25;;;;;;;-2.28;100.00;92582.56;5133221;27;20047;-79
2022/02/08 03:50:40;;;;;;;5.13;3.45;;;;;;;-2.04;100.00;92596.22;5133061;27;20042;-79
2022/02/08 03:53:07;;;;;;;3.78;3.10;;;;;;;-2.02;100.00;92593.56;5133285;27;20051;-79
2022/02/08 03:55:34;;;;;;;4.22;3.33;;;;;;;-2.29;100.00;92595.28;5133465;27;20376;-79
2022/02/08 03:58:00;;;;;;;5.32;3.70;;;;;;;-2.21;100.00;92620.50;5133336;27;20051;-78
2022/02/08 04:00:31;;;;;;;4.43;3.25;;;;;;;-2.17;100.00;92636.88;5112711;28;20040;-79
2022/02/08 04:03:00;;;;;;;4.55;3.17;;;;;;;-2.17;100.00;92636.09;5118797;27;20130;-79
2022/02/08 04:05:31;;;;;;;4.40;2.92;;;;;;;-2.18;100.00;92639.56;5132725;27;20045;-79
2022/02/08 04:08:01;;;;;;;4.07;3.20;;;;;;;-2.21;100.00;92624.75;5132890;27;20394;-79
2022/02/08 04:10:30;;;;;;;5.07;2.95;;;;;;;-2.29;100.00;92636.34;5132694;27;20088;-79
2022/02/08 04:13:08;;;;;;;3.83;3.42;;;;;;;-2.52;100.00;92615.06;5132497;27;20047;-79
2022/02/08 04:15:46;;;;;;;3.92;3.33;;;;;;;-2.23;100.00;92649.28;5132816;27;20043;-77
2022/02/08 04:34:56;;;;;;;4.10;2.92;;;;;;;-2.31;100.00;92675.16;5132034;27;20091;-78
2022/02/08 04:43:20;;;;;;;4.03;2.90;;;;;;;-2.40;100.00;92681.84;5132474;27;20039;-77
2022/02/08 04:45:52;;;;;;;5.05;3.15;;;;;;;-2.40;100.00;92701.16;5132028;27;20107;-77
2022/02/08 04:51:12;;;;;;;4.25;2.88;;;;;;;-2.43;100.00;92684.63;5118136;27;20396;-76
2022/02/08 04:53:46;;;;;;;4.15;3.13;;;;;;;-2.44;100.00;92695.63;5132047;27;20051;-77
2022/02/08 04:56:20;;;;;;;5.40;2.70;;;;;;;-2.51;100.00;92697.91;5132304;27;20390;-77
2022/02/08 04:58:53;;;;;;;6.45;3.83;;;;;;;-2.52;100.00;92703.06;5125609;27;20071;-77
2022/02/08 05:01:26;;;;;;;7.65;4.00;;;;;;;-2.53;100.00;92697.28;5111529;28;20044;-77
2022/02/08 05:42:48;;;;;;;6.22;4.22;;;;;;;-2.60;100.00;92751.59;5027780;28;20119;-76
2022/02/08 05:45:26;;;;;;;7.22;4.00;;;;;;;-2.75;100.00;92742.00;5082828;27;20059;-77
2022/02/08 05:47:56;;;;;;;5.30;3.80;;;;;;;-2.58;100.00;92777.38;5110671;28;20043;-77
2022/02/08 05:50:36;;;;;;;4.97;3.42;;;;;;;-2.73;100.00;92769.50;5110007;28;20040;-77
2022/02/08 05:53:07;;;;;;;9.05;5.47;;;;;;;-2.58;100.00;92780.66;5110476;28;20400;-77
2022/02/08 05:55:35;;;;;;;5.80;3.83;;;;;;;-2.63;100.00;92787.88;5110257;28;20831;-77
2022/02/08 05:58:03;;;;;;;9.40;5.93;;;;;;;-2.79;100.00;92775.09;5110133;28;20082;-77
2022/02/08 06:00:30;;;;;;;6.13;4.07;;;;;;;-2.65;100.00;92797.25;5110323;28;20054;-77
2022/02/08 06:03:01;;;;;;;6.50;3.50;;;;;;;-2.61;100.00;92811.13;5110343;28;20049;-77
2022/02/08 06:05:28;;;;;;;5.25;3.20;;;;;;;-2.55;100.00;92823.16;5110332;28;20134;-77
2022/02/08 06:07:55;;;;;;;7.85;4.88;;;;;;;-2.56;100.00;92834.16;5109927;28;20555;-77
2022/02/08 06:10:22;;;;;;;6.60;4.75;;;;;;;-2.58;100.00;92833.47;5110407;28;20043;-78
2022/02/08 06:12:52;;;;;;;5.82;4.25;;;;;;;-2.66;100.00;92848.47;5110147;28;20053;-78
2022/02/08 06:15:22;;;;;;;7.05;4.93;;;;;;;-2.51;100.00;92851.31;5109862;28;20043;-78
2022/02/08 06:17:50;;;;;;;7.88;4.65;;;;;;;-2.58;100.00;92862.88;5110251;28;20039;-78
2022/02/08 06:20:18;;;;;;;8.23;5.35;;;;;;;-2.55;100.00;92852.53;5109972;28;20040;-78
2022/02/08 06:22:45;;;;;;;6.90;5.22;;;;;;;-2.83;100.00;92813.06;5110011;28;20134;-78
2022/02/08 06:25:15;;;;;;;6.60;3.88;;;;;;;-2.69;100.00;92843.72;5109779;28;20138;-78
2022/02/08 06:27:42;;;;;;;5.18;4.05;;;;;;;-2.83;100.00;92835.69;5110095;28;20035;-78
2022/02/08 06:30:11;;;;;;;9.80;6.20;;;;;;;-2.53;100.00;92875.84;5110022;28;20040;-78
2022/02/08 06:32:38;;;;;;;9.07;5.30;;;;;;;-2.54;100.00;92879.28;5109426;28;20048;-78
2022/02/08 06:35:12;;;;;;;9.50;5.45;;;;;;;-2.50;100.00;92883.09;5109736;28;20126;-78
2022/02/08 06:37:40;;;;;;;6.60;4.93;;;;;;;-2.50;100.00;92893.16;5109758;28;20047;-78
2022/02/08 06:40:08;;;;;;;8.30;5.32;;;;;;;-2.52;100.00;92886.66;5109652;28;20065;-78
2022/02/08 06:42:35;;;;;;;9.32;4.97;;;;;;;-2.56;100.00;92899.53;5109498;28;20048;-78
2022/02/08 06:45:03;;;;;;;11.70;6.40;;;;;;;-2.56;100.00;92909.59;5109667;28;20056;-78
2022/02/08 06:47:32;;;;;;;11.50;6.32;;;;;;;-2.55;100.00;92915.41;5109996;28;20035;-78
2022/02/08 06:49:59;;;;;;;8.90;5.43;;;;;;;-2.54;100.00;92911.97;5109677;28;20067;-77
2022/02/08 06:52:26;;;;;;;5.43;4.32;;;;;;;-2.64;100.00;92894.38;5109766;28;20050;-77
2022/02/08 06:54:53;;;;;;;7.47;5.25;;;;;;;-2.46;100.00;92931.41;5109817;28;20062;-78
2022/02/08 06:57:20;;;;;;;7.30;5.10;;;;;;;-2.42;100.00;92945.28;5109616;28;20043;-78
2022/02/08 06:59:51;;;;;;;5.32;4.28;;;;;;;-2.51;100.00;92924.25;5109458;28;20093;-78
2022/02/08 07:02:18;;;;;;;7.50;5.13;;;;;;;-2.36;100.00;92954.00;5111101;28;20130;-78
2022/02/08 07:04:46;;;;;;;11.00;6.75;;;;;;;-2.44;100.00;92950.44;5113864;28;20448;-78
2022/02/08 07:07:16;;;;;;;7.68;4.82;;;;;;;-2.49;100.00;92969.41;5113777;28;20040;-78
2022/02/08 07:09:43;;;;;;;8.65;4.55;;;;;;;-2.48;100.00;92965.94;5113548;28;20039;-78
2022/02/08 07:12:11;;;;;;;32.50;17.13;;;;;;;-2.56;100.00;92959.88;5113605;28;20044;-78
2022/02/08 07:14:38;;;;;;;19.85;9.90;;;;;;;-2.42;100.00;92972.94;5113471;28;20040;-78
2022/02/08 07:17:05;;;;;;;6.78;4.47;;;;;;;-2.38;100.00;92978.50;5113294;28;20478;-78
2022/02/08 07:19:32;;;;;;;11.63;6.43;;;;;;;-2.50;100.00;92973.63;5113566;28;20403;-77
2022/02/08 07:22:00;;;;;;;6.40;4.07;;;;;;;-2.49;100.00;92984.50;5113250;28;20116;-78
2022/02/08 07:24:27;;;;;;;29.88;14.55;;;;;;;-2.47;100.00;92972.56;5113351;28;20052;-78
2022/02/08 07:26:55;;;;;;;10.18;4.60;;;;;;;-2.45;100.00;92985.81;5113067;28;20558;-78
2022/02/08 07:29:22;;;;;;;8.10;4.93;;;;;;;-2.46;100.00;92979.19;5113344;28;20046;-78
2022/02/08 07:31:53;;;;;;;8.45;5.38;;;;;;;-2.42;100.00;92976.28;5112999;28;20506;-78
2022/02/08 07:34:23;;;;;;;6.97;4.78;;;;;;;-2.31;100.00;92979.56;5112822;28;20554;-78
2022/02/08 07:36:57;;;;;;;6.18;3.78;;;;;;;-2.35;100.00;92983.25;5113144;28;20070;-78
2022/02/08 07:39:37;;;;;;;5.82;3.20;;;;;;;-2.43;100.00;92989.78;5113261;28;20120;-78
2022/02/08 07:42:04;;;;;;;31.35;13.93;;;;;;;-2.29;100.00;92997.81;5113105;28;20036;-78
2022/02/08 07:44:31;;;;;;;18.35;8.90;;;;;;;-2.26;100.00;93004.28;5113010;28;20044;-78
2022/02/08 07:46:58;;;;;;;9.60;6.65;;;;;;;-2.30;100.00;93007.06;5112916;28;20040;-78
2022/02/08 07:49:25;;;;;;;5.25;3.70;;;;;;;-2.32;100.00;93001.38;5113016;28;20054;-78
2022/02/08 07:51:52;;;;;;;7.28;5.35;;;;;;;-2.21;100.00;93004.69;5113068;28;20070;-78
2022/02/08 07:54:19;;;;;;;14.80;8.88;;;;;;;-2.22;100.00;93001.34;5112729;28;20063;-78
2022/02/08 07:56:47;;;;;;;6.43;4.22;;;;;;;-2.16;100.00;93015.13;5112904;28;20048;-78
2022/02/08 07:59:14;;;;;;;6.32;4.22;;;;;;;-2.11;100.00;93015.50;5112691;28;20341;-78
2022/02/08 08:01:41;;;;;;;7.68;4.28;;;;;;;-2.10;100.00;93023.84;5112746;28;20039;-78
2022/02/08 08:04:08;;;;;;;6.22;4.10;;;;;;;-1.98;100.00;93037.88;5112428;28;20495;-78
2022/02/08 08:06:34;;;;;;;7.20;4.55;;;;;;;-1.94;100.00;93034.13;5112478;28;20047;-78
2022/02/08 08:09:01;;;;;;;10.20;6.30;;;;;;;-1.90;100.00;93037.19;5112330;28;20044;-78
2022/02/08 08:11:35;;;;;;;12.57;6.85;;;;;;;-1.85;100.00;93052.66;5112265;28;20085;-78
2022/02/08 08:14:05;;;;;;;4.85;3.25;;;;;;;-2.02;100.00;93013.91;5111832;28;20044;-78
2022/02/08 08:16:44;;;;;;;6.22;4.25;;;;;;;-1.98;100.00;93044.63;5112471;28;20118;-79
2022/02/08 08:22:00;;;;;;;7.72;4.13;;;;;;;-1.89;100.00;93053.88;5104924;28;20054;-78
2022/02/08 08:24:27;;;;;;;4.10;2.90;;;;;;;-2.04;100.00;93045.97;5112055;28;20047;-78
2022/02/08 08:26:54;;;;;;;4.68;3.08;;;;;;;-1.96;100.00;93066.22;5112269;28;20043;-78
2022/02/08 08:29:22;;;;;;;8.40;4.28;;;;;;;-1.86;100.00;93078.75;5111884;28;20043;-78
2022/02/08 08:31:49;;;;;;;6.18;3.33;;;;;;;-1.81;100.00;93070.81;5112100;28;20039;-78
2022/02/08 08:34:15;;;;;;;5.28;3.45;;;;;;;-1.93;100.00;93067.66;5111644;28;20047;-78
2022/02/08 08:36:43;;;;;;;4.93;2.83;;;;;;;-1.82;100.00;93082.59;5111700;28;20092;-78
2022/02/08 08:39:11;;;;;;;5.68;3.38;;;;;;;-2.09;100.00;93045.59;5111682;28;20045;-78
2022/02/08 08:41:44;;;;;;;6.00;3.83;;;;;;;-1.76;100.00;93089.59;5111730;28;20085;-78
2022/02/08 08:52:36;;;;;;;5.25;3.33;;;;;;;-1.63;100.00;93103.59;5111730;28;20043;-78
2022/02/08 08:55:05;;;;;;;7.53;4.32;;;;;;;-1.64;100.00;93107.88;5111726;28;20126;-78
2022/02/08 08:57:32;;;;;;;4.65;3.45;;;;;;;-1.54;100.00;93120.41;5111263;28;20118;-79
2022/02/08 08:59:59;;;;;;;5.50;3.00;;;;;;;-1.56;100.00;93112.22;5111224;28;20051;-78
2022/02/08 09:02:27;;;;;;;5.45;3.30;;;;;;;-1.68;100.00;93091.44;5111500;28;20039;-79
2022/02/08 09:04:55;;;;;;;5.20;2.88;;;;;;;-1.64;100.00;93100.31;5111516;28;20047;-79
2022/02/08 09:07:22;;;;;;;13.32;6.72;;;;;;;-1.49;100.00;93117.47;5111506;28;20043;-79
2022/02/08 09:09:55;;;;;;;5.47;3.63;;;;;;;-1.48;100.00;93119.09;5111363;28;20089;-79
2022/02/08 09:12:26;;;;;;;6.07;3.92;;;;;;;-1.44;100.00;93125.41;5111315;28;20039;-81
2022/02/08 09:15:10;;;;;;;7.25;3.47;;;;;;;-1.45;100.00;93136.44;5111205;28;20047;-79
2022/02/08 09:18:00;;;;;;;5.63;3.80;;;;;;;-1.46;100.00;93122.25;5111060;28;20054;-79
2022/02/08 09:23:24;;;;;;;4.63;3.60;;;;;;;-1.22;100.00;93121.75;5096709;28;20089;-80
2022/02/08 09:26:04;;;;;;;5.57;3.15;;;;;;;-1.32;100.00;93107.59;5110246;28;20475;-80
2022/02/08 09:28:42;;;;;;;4.47;2.78;;;;;;;-1.23;100.00;93112.63;5110954;28;20039;-80
2022/02/08 09:31:14;;;;;;;6.43;3.63;;;;;;;-1.21;100.00;93117.50;5110956;28;20039;-79
2022/02/08 09:33:42;;;;;;;6.97;4.70;;;;;;;-1.09;100.00;93113.88;5110512;28;20585;-80
2022/02/08 09:36:09;;;;;;;6.05;3.53;;;;;;;-1.14;100.00;93135.38;5110588;28;20479;-80
2022/02/08 09:38:36;;;;;;;7.35;3.25;;;;;;;-1.05;100.00;93137.06;5110386;28;20108;-79
2022/02/08 09:41:03;;;;;;;6.35;3.45;;;;;;;-0.96;100.00;93141.25;5110746;28;20092;-80
2022/02/08 09:43:32;;;;;;;5.70;3.28;;;;;;;-0.95;100.00;93124.41;5110811;28;20039;-81
2022/02/08 09:46:01;;;;;;;7.05;4.00;;;;;;;-1.02;100.00;93128.44;5110772;28;20391;-80
2022/02/08 09:48:37;;;;;;;8.23;3.42;;;;;;;-1.30;100.00;93115.84;5110827;28;20551;-80
2022/02/08 09:51:05;;;;;;;5.80;3.28;;;;;;;-1.01;100.00;93123.25;5110780;28;20044;-81
2022/02/08 09:53:35;;;;;;;8.57;3.88;;;;;;;-0.96;100.00;93137.97;5110492;28;20047;-82
2022/02/08 09:56:02;;;;;;;4.97;2.72;;;;;;;-1.01;99.98;93125.78;5110371;28;20044;-82
2022/02/08 09:58:29;;;;;;;7.43;3.35;;;;;;;-1.02;100.00;93136.00;5110491;28;20372;-81
2022/02/08 10:01:05;;;;;;;5.25;3.10;;;;;;;-1.01;100.00;93123.25;5110193;28;20047;-82
2022/02/08 10:03:32;;;;;;;5.30;3.00;;;;;;;-0.85;100.00;93135.25;5110368;28;20055;-82
2022/02/08 10:05:59;;;;;;;5.88;3.60;;;;;;;-0.74;100.00;93134.22;5110325;28;20383;-82
2022/02/08 10:08:29;;;;;;;7.28;4.13;;;;;;;-0.89;100.00;93092.81;5110139;28;20052;-82
2022/02/08 10:10:56;;;;;;;6.05;3.70;;;;;;;-0.72;100.00;93109.69;5110030;28;20107;-83
2022/02/08 10:13:42;;;;;;;5.07;2.50;;;;;;;-0.80;100.00;93112.09;5110044;28;20051;-83
2022/02/08 10:19:04;;;;;;;5.65;2.78;;;;;;;-0.98;100.00;93133.03;5110021;28;20050;-82
2022/02/08 10:21:46;;;;;;;4.60;2.80;;;;;;;-0.90;100.00;93127.31;5110263;28;20081;-83
2022/02/08 10:24:17;;;;;;;4.95;2.33;;;;;;;-0.88;100.00;93115.34;5110060;28;20051;-82
2022/02/08 10:26:56;;;;;;;6.30;3.20;;;;;;;-0.84;100.00;93144.38;5110042;28;20062;-82
2022/02/08 10:29:35;;;;;;;6.40;3.75;;;;;;;-1.27;100.00;93070.19;5109671;28;20047;-83
2022/02/08 10:32:32;;;;;;;4.25;2.63;;;;;;;-0.89;100.00;93133.94;5110000;28;20070;-83
2022/02/08 10:37:47;;;;;;;3.78;2.30;;;;;;;-1.51;100.00;93057.19;5109535;28;20055;-83
2022/02/08 10:40:18;;;;;;;5.07;2.88;;;;;;;-1.16;100.00;93107.78;5110064;28;20062;-83
2022/02/08 10:42:55;;;;;;;4.97;3.38;;;;;;;-1.11;100.00;93120.00;5109889;28;20043;-82
2022/02/08 10:45:23;;;;;;;8.05;3.25;;;;;;;-0.88;100.00;93144.81;5109907;28;20051;-83
2022/02/08 10:47:58;;;;;;;6.22;2.78;;;;;;;-0.71;100.00;93133.97;5109798;28;20039;-82
2022/02/08 10:50:27;;;;;;;4.57;3.20;;;;;;;-0.68;100.00;93133.66;5109338;28;20047;-82
2022/02/08 10:52:56;;;;;;;3.88;2.55;;;;;;;-0.98;100.00;93129.72;5109477;28;20044;-83
2022/02/08 10:55:32;;;;;;;5.72;2.95;;;;;;;-0.58;100.00;93145.44;5109330;28;20138;-83
2022/02/08 11:00:48;;;;;;;5.45;2.75;;;;;;;-0.64;100.00;93173.75;5108835;28;20097;-83
2022/02/08 11:03:20;;;;;;;5.63;2.65;;;;;;;-0.57;100.00;93160.44;5109211;28;20048;-83
2022/02/08 11:06:02;;;;;;;5.93;3.00;;;;;;;-0.53;100.00;93165.97;5109873;28;20517;-84
2022/02/08 11:08:50;;;;;;;6.53;2.80;;;;;;;-0.56;100.00;93174.63;5109595;28;20048;-83
2022/02/08 11:17:21;;;;;;;6.45;2.85;;;;;;;-0.68;100.00;93145.50;5100261;28;20014;-83
2022/02/08 11:19:54;;;;;;;6.20;2.80;;;;;;;-0.78;98.03;93159.88;5119257;28;20043;-83
2022/02/08 11:22:32;;;;;;;11.00;3.25;;;;;;;-1.06;99.53;93106.94;5128347;28;20047;-83
2022/02/08 11:25:03;;;;;;;7.53;3.65;;;;;;;-0.79;99.65;93138.13;5129260;28;20497;-82
2022/02/08 11:27:40;;;;;;;7.55;3.90;;;;;;;-0.60;98.72;93172.53;5129803;28;20054;-84
2022/02/08 11:30:13;;;;;;;7.57;3.58;;;;;;;-0.74;99.73;93153.63;5130444;27;20051;-83
2022/02/08 11:32:57;;;;;;;5.18;2.35;;;;;;;-0.66;98.27;93160.50;5130493;28;20050;-81
2022/02/08 11:46:50;;;;;;;6.00;3.42;;;;;;;-0.64;99.87;93151.03;5129327;27;20075;-81
2022/02/08 11:52:49;;;;;;;7.00;3.58;;;;;;;-0.25;98.41;93193.69;5116730;27;20051;-82
2022/02/08 11:55:39;;;;;;;6.47;2.85;;;;;;;-0.57;96.09;93154.56;5133491;27;20390;-81
2022/02/08 12:00:45;;;;;;;5.68;2.97;;;;;;;-0.14;95.33;93182.56;5133923;27;20050;-81
2022/02/08 12:06:23;;;;;;;9.75;3.80;;;;;;;-0.19;96.61;93169.59;5121533;27;20084;-82
2022/02/08 12:08:53;;;;;;;16.63;6.00;;;;;;;-0.02;94.72;93180.63;5133134;27;20054;-82
2022/02/08 12:11:34;;;;;;;6.25;3.15;;;;;;;-0.37;92.21;93121.66;5132761;27;20554;-82
2022/02/08 12:33:55;;;;;;;3.20;1.80;;;;;;;0.19;88.65;93175.25;5117693;27;20130;-80
2022/02/08 12:53:37;;;;;;;4.40;1.77;;;;;;;0.33;86.85;93213.56;5110807;27;20039;-80
2022/02/08 12:56:12;;;;;;;5.35;2.30;;;;;;;0.31;88.75;93208.66;5131967;27;20035;-80
2022/02/08 12:59:08;;;;;;;5.95;2.45;;;;;;;0.18;88.06;93191.34;5131621;27;20039;-80
2022/02/08 13:04:31;;;;;;;5.18;2.60;;;;;;;0.16;90.73;93215.97;5114010;27;20095;-80
2022/02/08 13:19:04;;;;;;;4.72;2.45;;;;;;;0.31;90.20;93233.94;5131617;27;20054;-81
2022/02/08 14:05:57;;;;;;;7.38;2.72;;;;;;;0.23;88.54;93262.44;5109419;28;20509;-77
2022/02/08 14:08:35;;;;;;;7.45;3.08;;;;;;;0.33;88.59;93284.31;5109723;28;20050;-77
2022/02/08 14:11:41;;;;;;;6.28;3.20;;;;;;;0.46;87.05;93289.78;5110126;28;20372;-77
2022/02/08 14:14:29;;;;;;;6.22;3.53;;;;;;;0.40;88.41;93295.44;5109799;28;20097;-78
2022/02/08 14:17:28;;;;;;;7.50;2.58;;;;;;;0.45;87.97;93300.03;5109920;28;20085;-77
2022/02/08 14:20:29;;;;;;;7.63;3.20;;;;;;;0.18;87.15;93264.59;5109898;28;20043;-78
2022/02/08 14:23:08;;;;;;;6.10;2.83;;;;;;;0.52;88.28;93313.72;5109536;28;20145;-77
2022/02/08 14:25:46;;;;;;;4.75;3.13;;;;;;;0.45;88.13;93310.97;5109294;28;20047;-77
2022/02/08 14:31:09;;;;;;;8.63;3.70;;;;;;;0.44;89.62;93331.31;5109625;28;20043;-77
2022/02/08 14:34:05;;;;;;;9.98;3.95;;;;;;;0.43;90.15;93324.69;5108015;28;20050;-77
2022/02/08 14:36:49;;;;;;;17.25;4.85;;;;;;;0.45;90.19;93336.22;5110720;28;20043;-77
2022/02/08 15:07:02;;;;;;;6.40;2.45;;;;;;;0.03;89.56;93372.94;5083024;28;20040;-81
2022/02/08 15:09:32;;;;;;;7.18;2.25;;;;;;;0.02;90.15;93383.97;5109482;28;20054;-81
2022/02/08 15:12:09;;;;;;;6.78;1.98;;;;;;;-0.28;89.93;93353.00;5109366;28;20046;-81
2022/02/08 15:14:40;;;;;;;5.60;2.20;;;;;;;-0.05;89.42;93411.50;5109294;28;20051;-81
2022/02/08 15:17:07;;;;;;;4.60;1.90;;;;;;;-0.08;89.16;93391.59;5108994;28;20044;-82
2022/02/08 15:19:37;;;;;;;8.30;2.65;;;;;;;-0.09;90.37;93396.78;5109469;28;20047;-81
2022/02/08 15:22:05;;;;;;;7.18;2.65;;;;;;;-0.21;90.56;93376.75;5109554;28;20051;-81
2022/02/08 15:24:32;;;;;;;5.82;2.25;;;;;;;0.03;89.40;93397.38;5111024;28;20114;-82
2022/02/08 15:26:59;;;;;;;6.63;3.13;;;;;;;0.04;90.78;93394.72;5113353;28;20376;-82
2022/02/08 15:29:27;;;;;;;6.00;2.83;;;;;;;-0.41;89.84;93333.91;5112939;28;20050;-82
2022/02/08 15:31:55;;;;;;;6.18;2.03;;;;;;;-0.13;89.20;93413.94;5113467;28;20044;-81
2022/02/08 15:34:22;;;;;;;5.30;2.55;;;;;;;-0.25;90.82;93385.53;5112436;28;20072;-82
2022/02/08 15:36:52;;;;;;;7.32;2.88;;;;;;;-0.19;90.34;93396.81;5112743;28;20352;-82
2022/02/08 15:39:19;;;;;;;5.78;2.72;;;;;;;-0.17;90.17;93400.81;5112353;28;20063;-82
2022/02/08 15:41:46;;;;;;;8.20;2.83;;;;;;;-0.14;89.75;93413.13;5112794;28;20131;-81
2022/02/08 15:44:18;;;;;;;6.90;2.90;;;;;;;-0.47;89.74;93379.91;5113075;28;20047;-81
2022/02/08 15:46:46;;;;;;;6.40;2.75;;;;;;;-0.29;90.22;93417.84;5112288;28;20040;-81
2022/02/08 15:49:14;;;;;;;7.97;3.15;;;;;;;-0.17;89.86;93447.97;5112707;28;20043;-82
2022/02/08 15:51:44;;;;;;;6.15;2.70;;;;;;;-0.22;90.60;93440.00;5113005;27;20044;-82
2022/02/08 15:54:21;;;;;;;7.03;2.67;;;;;;;-0.43;88.86;93416.56;5112604;28;20051;-81
2022/02/08 15:57:09;;;;;;;6.32;3.05;;;;;;;-0.34;89.49;93439.38;5112986;28;20078;-82
2022/02/08 16:05:20;;;;;;;6.07;2.55;;;;;;;-0.30;90.76;93459.16;5113033;28;20054;-81
2022/02/08 16:07:52;;;;;;;7.15;3.15;;;;;;;-0.36;90.67;93461.44;5112615;28;20453;-82